createdAt,value
2024-02-13T00:06:18.271Z,5.16
2024-02-13T00:16:24.350Z,5.11
2024-02-13T00:26:30.419Z,5.05
2024-02-13T00:36:36.376Z,5.02
2024-02-13T00:46:42.583Z,5.01
2024-02-13T00:56:49.102Z,4.97
2024-02-13T01:06:55.490Z,4.91
2024-02-13T01:17:02.212Z,4.84
2024-02-13T01:27:08.743Z,4.72
2024-02-13T01:37:14.816Z,4.64
2024-02-13T01:47:23.146Z,4.56
2024-02-13T01:57:31.139Z,4.48
2024-02-13T02:07:38.916Z,4.35
2024-02-13T02:17:52.741Z,4.26
2024-02-13T02:27:59.511Z,4.24
2024-02-13T02:38:06.416Z,4.19
2024-02-13T02:48:16.232Z,4.07
2024-02-13T02:58:25.409Z,4.03
2024-02-13T03:08:35.132Z,3.95
2024-02-13T03:18:41.303Z,3.62
2024-02-13T03:28:47.556Z,3.39
2024-02-13T03:38:54.872Z,3.19
2024-02-13T03:49:01.074Z,2.90
2024-02-13T03:59:07.030Z,2.67
2024-02-13T04:09:13.184Z,2.79
2024-02-13T04:19:19.449Z,3.02
2024-02-13T04:29:25.422Z,3.19
2024-02-13T04:39:31.879Z,3.30
2024-02-13T04:49:38.176Z,3.36
2024-02-13T04:59:50.360Z,3.29
2024-02-13T05:09:59.372Z,3.22
2024-02-13T05:20:12.868Z,3.30
2024-02-13T05:30:19.732Z,3.38
2024-02-13T05:40:26.267Z,3.45
2024-02-13T05:50:32.459Z,3.52
2024-02-13T06:00:38.951Z,3.57
2024-02-13T06:10:45.534Z,3.66
2024-02-13T06:20:51.807Z,3.72
2024-02-13T06:31:01.150Z,3.76
2024-02-13T06:41:07.603Z,3.87
2024-02-13T06:51:15.510Z,4.02
2024-02-13T07:01:27.124Z,4.12
2024-02-13T07:11:33.364Z,4.22
2024-02-13T07:21:39.530Z,4.32
2024-02-13T07:31:45.619Z,4.42
2024-02-13T07:41:52.301Z,4.57
2024-02-13T07:52:01.144Z,4.76
2024-02-13T08:02:07.553Z,5.00
2024-02-13T08:12:14.180Z,5.35
2024-02-13T08:22:20.524Z,5.55
2024-02-13T08:32:28.357Z,5.61
2024-02-13T08:42:36.212Z,5.96
2024-02-13T08:52:44.470Z,6.56
2024-02-13T09:02:50.847Z,7.08
2024-02-13T09:12:57.307Z,8.47
2024-02-13T09:23:03.686Z,9.93
2024-02-13T09:33:11.092Z,11.06
2024-02-13T09:43:20.342Z,11.54
2024-02-13T09:53:28.656Z,11.37
2024-02-13T10:03:34.959Z,10.01
2024-02-13T10:13:46.697Z,8.76
2024-02-13T10:23:55.871Z,7.77
2024-02-13T10:34:05.007Z,7.37
2024-02-13T10:44:13.210Z,7.42
2024-02-13T10:54:19.408Z,7.18
2024-02-13T11:04:28.066Z,6.85
2024-02-13T11:14:34.723Z,6.93
2024-02-13T11:24:52.745Z,6.89
2024-02-13T11:35:01.161Z,6.79
2024-02-13T11:45:09.516Z,6.91
2024-02-13T11:55:16.396Z,7.07
2024-02-13T12:05:26.369Z,7.31
2024-02-13T12:15:32.855Z,7.63
2024-02-13T12:25:39.151Z,7.46
2024-02-13T12:35:48.213Z,7.03
2024-02-13T12:45:56.653Z,6.69
2024-02-13T12:56:04.280Z,6.81
2024-02-13T13:06:13.133Z,6.74
2024-02-13T13:16:20.370Z,6.74
2024-02-13T13:26:35.742Z,6.78
2024-02-13T13:36:42.399Z,6.79
2024-02-13T13:46:52.245Z,6.82
2024-02-13T13:56:58.590Z,6.73
2024-02-13T14:07:07.051Z,6.60
2024-02-13T14:17:13.076Z,6.36
2024-02-13T14:27:20.234Z,6.20
2024-02-13T14:37:26.985Z,6.05
2024-02-13T14:47:35.342Z,5.97
2024-02-13T14:57:47.141Z,5.88
2024-02-13T15:08:04.989Z,5.73
2024-02-13T15:18:12.218Z,5.55
2024-02-13T15:28:18.598Z,5.39
2024-02-13T15:38:41.984Z,5.27
2024-02-13T15:48:48.203Z,5.19
2024-02-13T15:58:54.531Z,5.08
2024-02-13T16:09:00.853Z,4.94
2024-02-13T16:19:09.711Z,4.82
2024-02-13T16:29:15.781Z,4.73
2024-02-13T16:39:24.018Z,4.69
2024-02-13T16:49:30.130Z,4.61
2024-02-13T16:59:35.952Z,4.50
2024-02-13T17:09:42.449Z,4.42
2024-02-13T17:19:48.840Z,4.34
2024-02-13T17:29:55.086Z,4.26
2024-02-13T17:40:01.855Z,4.23
2024-02-13T17:50:10.015Z,4.22
2024-02-13T18:00:23.073Z,4.15
2024-02-13T18:10:29.292Z,4.12
2024-02-13T18:20:35.797Z,4.07
2024-02-13T18:30:42.131Z,4.01
2024-02-13T18:40:49.916Z,3.94
2024-02-13T18:50:56.253Z,3.89
2024-02-13T19:01:02.262Z,3.86
2024-02-13T19:11:08.823Z,3.81
2024-02-13T19:21:15.140Z,3.77
2024-02-13T19:31:25.007Z,3.75
2024-02-13T19:41:32.272Z,3.72
2024-02-13T19:51:39.570Z,3.70
2024-02-13T20:01:45.561Z,3.69
2024-02-13T20:11:51.663Z,3.66
2024-02-13T20:21:57.474Z,3.60
2024-02-13T20:32:04.946Z,3.58
2024-02-13T20:42:11.950Z,3.55
2024-02-13T20:52:16.471Z,3.52
2024-02-13T21:02:22.513Z,3.48
2024-02-13T21:12:29.322Z,3.29
2024-02-13T21:22:49.173Z,2.88
2024-02-13T21:32:54.962Z,2.44
2024-02-13T21:43:01.635Z,2.18
2024-02-13T21:53:07.840Z,2.14
2024-02-13T22:03:14.143Z,2.19
2024-02-13T22:13:22.340Z,2.26
2024-02-13T22:23:30.985Z,2.33
2024-02-13T22:33:37.179Z,2.35
2024-02-13T22:43:43.530Z,2.30
2024-02-13T22:53:49.569Z,2.20
2024-02-13T23:03:55.794Z,2.14
2024-02-13T23:14:02.461Z,2.14
2024-02-13T23:24:09.583Z,2.14
2024-02-13T23:34:16.381Z,2.12
2024-02-13T23:44:24.466Z,2.11
2024-02-13T23:54:30.527Z,2.09
